Aérodrome :
LOGIN :

S'inscrire | Disclaimer

   EN    FR    IT 

 










Légende :    VFR   VFR Marginal   IFR   IFR Intensif   IFR Très Intensif
Visi : 
Plafond : 
>= 8 km
>= 3000ft
5 à 8 km
1000 à 3000 ft
1500m à 5 km
500 à 1000 ft
800 à 1500m
200 à 500 ft
< 800m
< 200 ft
Symboles :   Orages  Brouillard  Fortes neiges  Fortes précipitations  Vent > 20 kt
SIGMETs :   Divers  Orages  Givrage  Turbulence  Onde Orograph.  Cendres Volcan.







- Altitude de l'aérodrome : 2776 ft
- Code IATA : VLL


LEVD - Valladolid

DERNIER METAR :
  • 230800Z 00000KT CAVOK 21/14 Q1024

METARs EXPIRÉS :
  • 230730Z 00000KT CAVOK 20/14 Q1024
  • 230700Z 08004KT 050V120 CAVOK 19/14 Q1024
  • 230630Z 08004KT 050V110 CAVOK 18/15 Q1023
  • 230600Z VRB01KT CAVOK 17/14 Q1023
  • 230530Z 00000KT CAVOK 15/12 Q1024

TAF TAF LEVD
Valide du 23 à 06h jusqu'au 24 à 06h UTC


230500Z 2306/2406 VRB05KT CAVOK TX33/2315Z TN16/2306Z
BECMG 2311/2313 26012KT
BECMG 2320/2322 VRB05KT
Pas de NOTAMs connus pour ce terrain.



MET'MAP, la Météo Aéronautique d'un coup d'oeil ! - Copyright ORBIFLY Décembre 2007 - Disclaimer

ORBIFLY MET'MAP TEAM :

Programmation & Développement : Alexandra Zaïnal
Conception & Développement : Baudouin d'Aumeries
Co-Programmation & Développement : Marc-Olivier Méhu
Soutien technique & logistique : Manuel Goepfert

Contact : metmap@orbifly.com




SOURCES & CREDITS :

   NOAA